Aérodrome :
LOGIN :

S'inscrire | Disclaimer

   EN    FR    IT 

 










Légende :    VFR   VFR Marginal   IFR   IFR Intensif   IFR Très Intensif
Visi : 
Plafond : 
>= 8 km
>= 3000ft
5 à 8 km
1000 à 3000 ft
1500m à 5 km
500 à 1000 ft
800 à 1500m
200 à 500 ft
< 800m
< 200 ft
Symboles :   Orages  Brouillard  Fortes neiges  Fortes précipitations  Vent > 20 kt
SIGMETs :   Divers  Orages  Givrage  Turbulence  Onde Orograph.  Cendres Volcan.







- Altitude de l'aérodrome : 1900 ft
- Code IATA : FEZ


GMFF - Fez Saiss

DERNIER METAR :
  • 161630Z 31006KT 280V020 9999 FEW013 BKN026 19/17 Q1017 NOSIG

METARs EXPIRÉS :
  • 161600Z 32007KT 290V350 9999 FEW013 BKN026 18/17 Q1017 NOSIG
  • 161530Z 32007KT 9999 FEW013 BKN026 19/16 Q1017 NOSIG
  • 161500Z 26013KT 220V290 9999 FEW013 BKN026 20/15 Q1016 NOSIG
  • 161430Z 25012KT 9999 FEW013 BKN026 20/14 Q1016 NOSIG
  • 161400Z 25015KT 9999 FEW013 BKN026 20/15 Q1016 NOSIG

TAF TAF GMFF
Valide du 16 à 12h jusqu'au 17 à 18h UTC


161100Z 1612/1718 30010KT 6000 2000W RA SCT006 BKN026
BECMG 1612/1616 NSW
BECMG 1622/1702 2000 BR RA BKN005 BKN020
BECMG 1710/1714 6000 NSW SCT010 BKN026
Pas de NOTAMs connus pour ce terrain.
3 SIGMETs publiés pour la FIR Casablanca (GMMM) :
 
Onde orographique forte
GMMM SIGMET 06 VALID 161635/162035 GMMC
GMMM CASABLANCA FIR SEV MTW FCST E OF LINE N3435 W00330 - N3252 W005 10 TOP FL020/100 STNR WKN=
Annulation du SIGMET 04
GMMM SIGMET 05 VALID 161625/161745 GMMC
GMMM CASABLANCA FIR CNL SIGMET 04 1245/1745=
SIGMET 04  ANNULÉ :
Onde orographique forte
GMMM SIGMET 04 VALID 161245/161745 GMMC
GMMM CASABLANCA FIR SEV MTW FCST E OF LINE N3440 W00412 - N3309 W005 32 TOP FL030/120 STNR NC=



MET'MAP, la Météo Aéronautique d'un coup d'oeil ! - Copyright ORBIFLY Décembre 2007 - Disclaimer

ORBIFLY MET'MAP TEAM :

Programmation & Développement : Alexandra Zaïnal
Conception & Développement : Baudouin d'Aumeries
Co-Programmation & Développement : Marc-Olivier Méhu
Soutien technique & logistique : Manuel Goepfert

Contact : metmap@orbifly.com




SOURCES & CREDITS :

   NOAA